createdAt,value
2022-09-24T00:01:19.028Z,12.54
2022-09-24T00:03:54.394Z,12.55
2022-09-24T00:06:22.500Z,12.53
2022-09-24T00:08:51.978Z,12.52
2022-09-24T00:11:20.877Z,12.54
2022-09-24T00:13:48.953Z,12.52
2022-09-24T00:16:17.327Z,12.52
2022-09-24T00:18:44.287Z,12.53
2022-09-24T00:21:25.129Z,12.51
2022-09-24T00:23:54.751Z,12.51
2022-09-24T00:26:40.816Z,12.50
2022-09-24T00:29:08.737Z,12.52
2022-09-24T00:31:35.894Z,12.52
2022-09-24T00:34:03.009Z,12.56
2022-09-24T00:36:30.287Z,12.54
2022-09-24T00:38:59.478Z,12.51
2022-09-24T00:41:29.486Z,12.47
2022-09-24T00:43:56.492Z,12.43
2022-09-24T00:46:32.244Z,12.37
2022-09-24T00:49:04.242Z,12.34
2022-09-24T00:51:33.622Z,12.33
2022-09-24T00:54:06.459Z,12.36
2022-09-24T00:56:36.639Z,12.31
2022-09-24T00:59:06.544Z,12.28
2022-09-24T01:01:33.692Z,12.28
2022-09-24T01:04:02.665Z,12.28
2022-09-24T01:06:29.834Z,12.25
2022-09-24T01:08:57.712Z,12.22
2022-09-24T01:12:01.706Z,12.25
2022-09-24T01:14:54.543Z,12.24
2022-09-24T01:17:46.595Z,12.24
2022-09-24T01:20:22.199Z,12.24
2022-09-24T01:23:08.483Z,12.25
2022-09-24T01:25:43.809Z,12.27
2022-09-24T01:28:59.831Z,12.26
2022-09-24T01:31:33.521Z,12.26
2022-09-24T01:34:05.925Z,12.28
2022-09-24T01:36:36.178Z,12.28
2022-09-24T01:39:05.975Z,12.28
2022-09-24T01:41:34.515Z,12.28
2022-09-24T01:44:05.056Z,12.29
2022-09-24T01:46:32.029Z,12.25
2022-09-24T01:48:59.531Z,12.25
2022-09-24T01:51:30.963Z,12.22
2022-09-24T01:54:03.686Z,12.17
2022-09-24T01:56:33.535Z,12.12
2022-09-24T01:59:12.643Z,12.05
2022-09-24T02:01:50.277Z,12.01
2022-09-24T02:04:20.412Z,12.01
2022-09-24T02:07:02.619Z,11.95
2022-09-24T02:09:33.549Z,11.95
2022-09-24T02:12:07.086Z,11.91
2022-09-24T02:14:38.960Z,11.92
2022-09-24T02:17:07.176Z,11.91
2022-09-24T02:19:37.841Z,11.89
2022-09-24T02:22:08.116Z,11.92
2022-09-24T02:24:44.644Z,11.95
2022-09-24T02:27:11.206Z,11.97
2022-09-24T02:29:37.725Z,11.98
2022-09-24T02:32:06.685Z,11.94
2022-09-24T02:34:38.391Z,11.92
2022-09-24T02:37:10.831Z,11.95
2022-09-24T02:39:37.334Z,11.97
2022-09-24T02:42:05.845Z,12.02
2022-09-24T02:44:33.804Z,11.91
2022-09-24T02:47:00.788Z,11.90
2022-09-24T02:49:27.617Z,11.91
2022-09-24T02:51:54.324Z,11.93
2022-09-24T02:54:21.769Z,11.93
2022-09-24T02:56:48.471Z,11.96
2022-09-24T02:59:15.286Z,11.98
2022-09-24T03:01:41.873Z,12.02
2022-09-24T03:04:08.675Z,11.98
2022-09-24T03:06:35.163Z,11.97
2022-09-24T03:09:03.806Z,11.96
2022-09-24T03:11:31.967Z,12.02
2022-09-24T03:13:59.643Z,12.00
2022-09-24T03:16:26.493Z,12.00
2022-09-24T03:18:52.968Z,11.96
2022-09-24T03:21:21.626Z,11.90
2022-09-24T03:23:48.395Z,11.84
2022-09-24T03:26:15.095Z,11.87
2022-09-24T03:28:41.538Z,11.79
2022-09-24T03:31:08.957Z,11.77
2022-09-24T03:33:44.813Z,11.73
2022-09-24T03:36:15.389Z,11.77
2022-09-24T03:38:43.226Z,11.80
2022-09-24T03:41:11.098Z,11.81
2022-09-24T03:43:37.868Z,11.83
2022-09-24T03:46:08.474Z,11.83
2022-09-24T03:48:37.061Z,11.81
2022-09-24T03:51:05.766Z,11.79
2022-09-24T03:53:38.826Z,11.79
2022-09-24T03:56:07.358Z,11.78
2022-09-24T03:58:37.409Z,11.76
2022-09-24T04:01:05.073Z,11.77
2022-09-24T04:03:36.367Z,11.76
2022-09-24T04:06:03.852Z,11.73
2022-09-24T04:08:31.952Z,11.74
2022-09-24T04:11:00.982Z,11.71
2022-09-24T04:13:28.369Z,11.66
2022-09-24T04:15:55.695Z,11.55
2022-09-24T04:18:22.582Z,11.53
2022-09-24T04:20:49.503Z,11.49
2022-09-24T04:23:15.934Z,11.46
2022-09-24T04:25:42.412Z,11.43
2022-09-24T04:28:10.473Z,11.48
2022-09-24T04:30:38.071Z,11.49
2022-09-24T04:33:05.047Z,11.48
2022-09-24T04:35:35.413Z,11.46
2022-09-24T04:38:04.259Z,11.50
2022-09-24T04:40:31.717Z,11.49
2022-09-24T04:42:58.915Z,11.49
2022-09-24T04:45:26.740Z,11.48
2022-09-24T04:47:57.277Z,11.45
2022-09-24T04:50:26.465Z,11.41
2022-09-24T04:52:54.109Z,11.44
2022-09-24T04:55:21.219Z,11.34
2022-09-24T04:57:48.211Z,11.24
2022-09-24T05:00:17.726Z,11.22
2022-09-24T05:02:45.235Z,11.24
2022-09-24T05:05:12.425Z,11.35
2022-09-24T05:07:39.861Z,11.29
2022-09-24T05:10:06.853Z,11.22
2022-09-24T05:12:35.336Z,11.26
2022-09-24T05:15:02.859Z,11.30
2022-09-24T05:17:29.809Z,11.32
2022-09-24T05:19:57.866Z,11.31
2022-09-24T05:22:27.449Z,11.30
2022-09-24T05:24:54.317Z,11.32
2022-09-24T05:27:23.204Z,11.37
2022-09-24T05:29:50.364Z,11.38
2022-09-24T05:32:19.236Z,11.42
2022-09-24T05:34:46.819Z,11.49
2022-09-24T05:37:14.640Z,11.46
2022-09-24T05:39:41.162Z,11.45
2022-09-24T05:42:10.154Z,11.44
2022-09-24T05:44:40.739Z,11.44
2022-09-24T05:47:07.363Z,11.44
2022-09-24T05:49:33.894Z,11.47
2022-09-24T05:52:02.921Z,11.50
2022-09-24T05:54:30.676Z,11.48
2022-09-24T05:56:57.372Z,11.50
2022-09-24T05:59:24.942Z,11.47
2022-09-24T06:01:52.218Z,11.44
2022-09-24T06:04:18.856Z,11.47
2022-09-24T06:06:45.273Z,11.40
2022-09-24T06:09:11.881Z,11.38
2022-09-24T06:11:40.722Z,11.42
2022-09-24T06:14:08.507Z,11.48
2022-09-24T06:16:35.414Z,11.53
2022-09-24T06:19:04.176Z,11.45
2022-09-24T06:21:31.117Z,11.47
2022-09-24T06:23:57.961Z,11.45
2022-09-24T06:26:26.290Z,11.50
2022-09-24T06:28:52.791Z,11.56
2022-09-24T06:31:19.307Z,11.61
2022-09-24T06:33:45.907Z,11.67
2022-09-24T06:36:12.344Z,11.70
2022-09-24T06:38:41.805Z,11.74
2022-09-24T06:41:10.100Z,11.74
2022-09-24T06:43:36.677Z,11.76
2022-09-24T06:46:03.852Z,11.76
2022-09-24T06:48:31.213Z,11.82
2022-09-24T06:51:02.792Z,11.79
2022-09-24T06:53:29.925Z,11.82
2022-09-24T06:56:00.090Z,11.85
2022-09-24T06:58:27.716Z,11.87
2022-09-24T07:00:59.096Z,11.92
2022-09-24T07:03:27.853Z,11.94
2022-09-24T07:05:54.981Z,11.97
2022-09-24T07:08:21.956Z,11.95
2022-09-24T07:10:54.980Z,11.97
2022-09-24T07:13:22.060Z,11.98
2022-09-24T07:15:50.208Z,11.98
2022-09-24T07:18:17.505Z,11.96
2022-09-24T07:20:43.999Z,11.94
2022-09-24T07:23:12.741Z,11.94
2022-09-24T07:25:39.371Z,11.93
2022-09-24T07:28:11.403Z,11.91
2022-09-24T07:30:39.051Z,11.95
2022-09-24T07:33:07.476Z,12.00
2022-09-24T07:35:36.849Z,12.09
2022-09-24T07:38:06.800Z,12.17
2022-09-24T07:40:35.280Z,12.25
2022-09-24T07:43:03.909Z,12.29
2022-09-24T07:45:32.382Z,12.32
2022-09-24T07:48:00.442Z,12.41
2022-09-24T07:50:29.870Z,12.51
2022-09-24T07:52:56.868Z,12.63
2022-09-24T07:55:24.228Z,12.75
2022-09-24T07:57:52.525Z,12.86
2022-09-24T08:00:20.651Z,12.92
2022-09-24T08:02:48.207Z,12.99
2022-09-24T08:05:18.029Z,13.02
2022-09-24T08:07:55.409Z,13.07
2022-09-24T08:10:23.553Z,13.13
2022-09-24T08:12:50.472Z,13.15
2022-09-24T08:15:17.083Z,13.19
2022-09-24T08:17:43.504Z,13.21
2022-09-24T08:20:10.785Z,13.22
2022-09-24T08:22:37.250Z,13.23
2022-09-24T08:25:04.719Z,13.22
2022-09-24T08:27:32.917Z,13.21
2022-09-24T08:30:00.921Z,13.17
2022-09-24T08:32:30.101Z,13.16
2022-09-24T08:34:56.529Z,13.20
2022-09-24T08:37:22.974Z,13.13
2022-09-24T08:39:49.444Z,13.18
2022-09-24T08:42:34.093Z,13.30
2022-09-24T08:45:22.314Z,13.37
2022-09-24T08:47:50.133Z,13.47
2022-09-24T08:50:23.339Z,13.51
2022-09-24T08:53:12.993Z,13.55
2022-09-24T08:55:52.944Z,13.57
2022-09-24T08:58:29.302Z,13.54
2022-09-24T09:01:17.045Z,13.52
2022-09-24T09:03:52.332Z,13.51
2022-09-24T09:06:36.851Z,13.54
2022-09-24T09:09:07.740Z,13.54
2022-09-24T09:11:39.118Z,13.54
2022-09-24T09:14:14.916Z,13.49
2022-09-24T09:16:55.583Z,13.52
2022-09-24T09:19:28.055Z,13.51
2022-09-24T09:22:05.246Z,13.57
2022-09-24T09:24:51.788Z,13.61
2022-09-24T09:27:19.861Z,13.64
2022-09-24T09:29:56.110Z,13.67
2022-09-24T09:32:28.293Z,13.69
2022-09-24T09:35:05.743Z,13.57
2022-09-24T09:37:38.687Z,13.71
2022-09-24T09:40:39.005Z,13.74
2022-09-24T09:43:11.063Z,13.90
2022-09-24T09:45:55.068Z,14.02
2022-09-24T09:48:26.108Z,14.17
2022-09-24T09:51:00.541Z,14.25
2022-09-24T09:53:31.586Z,14.36
2022-09-24T09:55:58.201Z,14.41
2022-09-24T09:58:27.202Z,14.40
2022-09-24T10:01:07.418Z,14.37
2022-09-24T10:03:47.133Z,14.48
2022-09-24T10:06:35.494Z,14.45
2022-09-24T10:09:16.506Z,14.56
2022-09-24T10:11:43.787Z,14.59
2022-09-24T10:14:13.373Z,14.66
2022-09-24T10:16:42.683Z,14.73
2022-09-24T10:19:20.341Z,14.77
2022-09-24T10:21:46.918Z,14.68
2022-09-24T10:24:23.267Z,14.76
2022-09-24T10:26:50.263Z,14.75
2022-09-24T10:29:38.219Z,14.80
2022-09-24T10:32:06.667Z,14.80
2022-09-24T10:34:36.899Z,14.84
2022-09-24T10:37:13.371Z,14.81
2022-09-24T10:39:39.786Z,14.82
2022-09-24T10:42:07.890Z,14.90
2022-09-24T10:44:37.244Z,14.94
2022-09-24T10:47:26.638Z,14.84
2022-09-24T10:50:19.643Z,14.74
2022-09-24T10:52:52.751Z,14.75
2022-09-24T10:55:55.418Z,14.60
2022-09-24T10:58:41.480Z,14.56
2022-09-24T11:01:28.377Z,14.56
2022-09-24T11:04:18.020Z,14.56
2022-09-24T11:07:17.962Z,14.61
2022-09-24T11:09:57.928Z,14.70
2022-09-24T11:12:40.982Z,14.66
2022-09-24T11:15:31.813Z,14.69
2022-09-24T11:18:36.735Z,14.65
2022-09-24T11:21:03.313Z,14.73
2022-09-24T11:23:43.771Z,14.60
2022-09-24T11:26:29.276Z,14.62
2022-09-24T11:28:59.004Z,14.71
2022-09-24T11:31:46.247Z,14.62
2022-09-24T11:34:24.566Z,14.57
2022-09-24T11:37:09.921Z,14.64
2022-09-24T11:39:55.136Z,14.57
2022-09-24T11:42:29.794Z,14.52
2022-09-24T11:44:56.330Z,14.53
2022-09-24T11:47:30.473Z,14.46
2022-09-24T11:50:25.613Z,14.54
2022-09-24T11:52:59.332Z,14.47
2022-09-24T11:55:34.323Z,14.48
2022-09-24T11:58:18.311Z,14.41
2022-09-24T12:00:59.207Z,14.59
2022-09-24T12:03:57.036Z,14.63
2022-09-24T12:06:31.057Z,14.72
2022-09-24T12:09:07.543Z,14.58
2022-09-24T12:11:54.874Z,14.63
2022-09-24T12:14:25.467Z,14.53
2022-09-24T12:16:56.946Z,14.51
2022-09-24T12:19:48.189Z,14.61
2022-09-24T12:22:19.001Z,14.66
2022-09-24T12:24:51.196Z,14.73
2022-09-24T12:27:25.528Z,14.70
2022-09-24T12:30:23.866Z,14.60
2022-09-24T12:33:03.280Z,14.43
2022-09-24T12:35:55.169Z,14.50
2022-09-24T12:38:33.864Z,14.37
2022-09-24T12:41:27.851Z,14.48
2022-09-24T12:44:12.178Z,14.37
2022-09-24T12:46:41.372Z,14.38
2022-09-24T12:49:23.181Z,14.50
2022-09-24T12:51:50.099Z,14.46
2022-09-24T12:54:35.348Z,14.56
2022-09-24T12:57:26.369Z,14.56
2022-09-24T13:00:00.677Z,14.59
2022-09-24T13:02:31.687Z,14.59
2022-09-24T13:05:03.483Z,14.52
2022-09-24T13:07:40.493Z,14.51
2022-09-24T13:10:15.979Z,14.33
2022-09-24T13:12:43.187Z,14.33
2022-09-24T13:15:40.448Z,14.22
2022-09-24T13:18:10.115Z,14.15
2022-09-24T13:20:38.744Z,14.07
2022-09-24T13:23:19.569Z,14.01
2022-09-24T13:25:56.536Z,14.07
2022-09-24T13:28:38.416Z,14.05
2022-09-24T13:31:27.231Z,13.96
2022-09-24T13:34:20.390Z,13.94
2022-09-24T13:37:03.173Z,13.92
2022-09-24T13:39:40.106Z,14.03
2022-09-24T13:42:28.699Z,14.03
2022-09-24T13:44:57.765Z,14.10
2022-09-24T13:47:51.665Z,14.15
2022-09-24T13:50:23.648Z,14.11
2022-09-24T13:52:55.471Z,14.08
2022-09-24T13:55:31.787Z,14.14
2022-09-24T13:57:58.932Z,14.23
2022-09-24T14:00:27.658Z,14.28
2022-09-24T14:02:58.602Z,14.30
2022-09-24T14:05:27.048Z,14.36
2022-09-24T14:08:02.067Z,14.39
2022-09-24T14:10:28.656Z,14.46
2022-09-24T14:13:22.839Z,14.42
2022-09-24T14:15:57.365Z,14.36
2022-09-24T14:18:26.393Z,14.25
2022-09-24T14:21:04.306Z,14.12
2022-09-24T14:23:38.255Z,14.08
2022-09-24T14:26:06.163Z,14.02
2022-09-24T14:28:35.052Z,14.03
2022-09-24T14:31:08.515Z,14.02
2022-09-24T14:33:40.168Z,13.99
2022-09-24T14:36:11.954Z,14.02
2022-09-24T14:38:58.432Z,14.01
2022-09-24T14:41:30.332Z,13.97
2022-09-24T14:44:26.175Z,14.04
2022-09-24T14:46:58.151Z,14.10
2022-09-24T14:49:26.768Z,14.13
2022-09-24T14:51:56.252Z,14.15
2022-09-24T14:54:37.059Z,14.13
2022-09-24T14:57:36.182Z,14.11
2022-09-24T15:00:03.495Z,14.09
2022-09-24T15:02:37.155Z,13.99
2022-09-24T15:05:07.736Z,13.98
2022-09-24T15:07:35.380Z,14.00
2022-09-24T15:10:04.836Z,13.98
2022-09-24T15:12:35.314Z,13.90
2022-09-24T15:15:16.777Z,13.78
2022-09-24T15:17:47.097Z,13.74
2022-09-24T15:20:14.052Z,13.70
2022-09-24T15:22:40.562Z,13.68
2022-09-24T15:25:07.733Z,13.59
2022-09-24T15:27:38.672Z,13.64
2022-09-24T15:30:07.999Z,13.63
2022-09-24T15:32:37.688Z,13.58
2022-09-24T15:35:09.406Z,13.51
2022-09-24T15:37:39.393Z,13.57
2022-09-24T15:40:09.237Z,13.60
2022-09-24T15:42:38.708Z,13.54
2022-09-24T15:45:15.136Z,13.55
2022-09-24T15:47:41.577Z,13.55
2022-09-24T15:50:12.378Z,13.49
2022-09-24T15:52:50.509Z,13.44
2022-09-24T15:55:19.075Z,13.39
2022-09-24T15:57:46.797Z,13.41
2022-09-24T16:00:24.048Z,13.42
2022-09-24T16:02:54.248Z,13.43
2022-09-24T16:05:21.597Z,13.46
2022-09-24T16:07:48.482Z,13.49
2022-09-24T16:10:16.536Z,13.48
2022-09-24T16:12:43.832Z,13.39
2022-09-24T16:15:15.644Z,13.38
2022-09-24T16:17:42.589Z,13.35
2022-09-24T16:20:09.959Z,13.35
2022-09-24T16:22:37.127Z,13.33
2022-09-24T16:25:03.948Z,13.36
2022-09-24T16:27:32.386Z,13.30
2022-09-24T16:29:58.934Z,13.26
2022-09-24T16:32:26.293Z,13.23
2022-09-24T16:34:54.773Z,13.23
2022-09-24T16:37:21.467Z,13.20
2022-09-24T16:39:48.001Z,13.14
2022-09-24T16:42:14.489Z,13.15
2022-09-24T16:44:41.036Z,13.16
2022-09-24T16:47:07.749Z,13.18
2022-09-24T16:49:35.640Z,13.20
2022-09-24T16:52:02.975Z,13.19
2022-09-24T16:54:31.192Z,13.13
2022-09-24T16:56:57.968Z,13.10
2022-09-24T16:59:24.466Z,13.14
2022-09-24T17:01:51.009Z,13.13
2022-09-24T17:04:17.514Z,13.11
2022-09-24T17:06:47.172Z,13.12
2022-09-24T17:09:36.496Z,13.08
2022-09-24T17:12:03.129Z,13.07
2022-09-24T17:14:30.495Z,13.09
2022-09-24T17:16:56.945Z,13.11
2022-09-24T17:19:23.615Z,13.09
2022-09-24T17:21:50.348Z,13.03
2022-09-24T17:24:21.582Z,13.04
2022-09-24T17:26:48.696Z,13.09
2022-09-24T17:29:15.254Z,13.10
2022-09-24T17:31:41.840Z,13.09
2022-09-24T17:34:12.230Z,13.09
2022-09-24T17:36:38.698Z,13.11
2022-09-24T17:39:05.789Z,13.12
2022-09-24T17:41:33.285Z,13.14
2022-09-24T17:44:00.332Z,13.09
2022-09-24T17:46:29.328Z,13.02
2022-09-24T17:48:58.231Z,13.04
2022-09-24T17:51:32.927Z,12.97
2022-09-24T17:54:02.223Z,12.96
2022-09-24T17:56:32.170Z,12.94
2022-09-24T17:58:59.398Z,13.00
2022-09-24T18:01:28.556Z,13.04
2022-09-24T18:03:57.253Z,13.00
2022-09-24T18:06:28.119Z,12.96
2022-09-24T18:08:56.983Z,12.86
2022-09-24T18:11:26.156Z,12.90
2022-09-24T18:13:55.239Z,12.92
2022-09-24T18:16:24.606Z,12.96
2022-09-24T18:18:51.451Z,12.89
2022-09-24T18:21:20.937Z,12.83
2022-09-24T18:23:48.017Z,12.77
2022-09-24T18:26:22.838Z,12.67
2022-09-24T18:28:51.472Z,12.66
2022-09-24T18:31:20.398Z,12.65
2022-09-24T18:33:48.908Z,12.64
2022-09-24T18:36:18.440Z,12.65
2022-09-24T18:38:45.076Z,12.64
2022-09-24T18:41:18.426Z,12.70
2022-09-24T18:43:44.965Z,12.64
2022-09-24T18:46:13.905Z,12.64
2022-09-24T18:48:42.765Z,12.62
2022-09-24T18:51:25.732Z,12.59
2022-09-24T18:53:54.307Z,12.60
2022-09-24T18:56:21.881Z,12.67
2022-09-24T18:58:48.467Z,12.73
2022-09-24T19:01:15.528Z,12.74
2022-09-24T19:03:43.333Z,12.77
2022-09-24T19:06:12.791Z,12.72
2022-09-24T19:08:40.079Z,12.75
2022-09-24T19:11:10.207Z,12.79
2022-09-24T19:13:38.774Z,12.75
2022-09-24T19:16:11.417Z,12.69
2022-09-24T19:18:39.029Z,12.67
2022-09-24T19:21:06.852Z,12.66
2022-09-24T19:23:43.308Z,12.67
2022-09-24T19:26:11.267Z,12.63
2022-09-24T19:28:40.943Z,12.58
2022-09-24T19:31:13.547Z,12.60
2022-09-24T19:33:40.595Z,12.58
2022-09-24T19:36:08.057Z,12.60
2022-09-24T19:38:35.791Z,12.62
2022-09-24T19:41:26.159Z,12.64
2022-09-24T19:43:54.665Z,12.70
2022-09-24T19:46:25.615Z,12.75
2022-09-24T19:48:53.662Z,12.78
2022-09-24T19:51:31.751Z,12.78
2022-09-24T19:54:03.335Z,12.83
2022-09-24T19:56:32.571Z,12.78
2022-09-24T19:59:03.350Z,12.79
2022-09-24T20:01:32.520Z,12.85
2022-09-24T20:04:03.730Z,12.81
2022-09-24T20:06:33.669Z,12.80
2022-09-24T20:09:01.781Z,12.85
2022-09-24T20:11:32.746Z,12.82
2022-09-24T20:14:01.029Z,12.79
2022-09-24T20:16:28.152Z,12.84
2022-09-24T20:18:57.613Z,12.77
2022-09-24T20:21:32.388Z,12.81
2022-09-24T20:23:59.436Z,12.67
2022-09-24T20:26:45.595Z,12.65
2022-09-24T20:29:13.625Z,12.67
2022-09-24T20:31:41.813Z,12.72
2022-09-24T20:34:09.181Z,12.63
2022-09-24T20:36:36.610Z,12.57
2022-09-24T20:39:06.348Z,12.55
2022-09-24T20:41:33.704Z,12.57
2022-09-24T20:44:00.950Z,12.57
2022-09-24T20:46:29.510Z,12.54
2022-09-24T20:48:58.968Z,12.59
2022-09-24T20:51:28.193Z,12.51
2022-09-24T20:53:55.416Z,12.48
2022-09-24T20:56:22.403Z,12.45
2022-09-24T20:58:50.603Z,12.50
2022-09-24T21:01:17.682Z,12.52
2022-09-24T21:03:45.633Z,12.48
2022-09-24T21:06:13.243Z,12.42
2022-09-24T21:08:42.230Z,12.39
2022-09-24T21:11:18.091Z,12.39
2022-09-24T21:13:49.904Z,12.47
2022-09-24T21:16:19.804Z,12.45
2022-09-24T21:18:47.680Z,12.38
2022-09-24T21:21:20.124Z,12.38
2022-09-24T21:23:49.492Z,12.49
2022-09-24T21:26:31.215Z,12.52
2022-09-24T21:29:05.453Z,12.48
2022-09-24T21:31:33.776Z,12.41
2022-09-24T21:34:01.095Z,12.49
2022-09-24T21:36:30.160Z,12.44
2022-09-24T21:39:15.642Z,12.40
2022-09-24T21:41:43.255Z,12.31
2022-09-24T21:44:12.805Z,12.28
2022-09-24T21:46:40.511Z,12.27
2022-09-24T21:49:07.289Z,12.29
2022-09-24T21:51:34.275Z,12.33
2022-09-24T21:54:05.027Z,12.27
2022-09-24T21:56:35.050Z,12.31
2022-09-24T21:59:23.393Z,12.26
2022-09-24T22:01:50.047Z,12.27
2022-09-24T22:04:16.715Z,12.18
2022-09-24T22:06:43.207Z,12.22
2022-09-24T22:09:10.281Z,12.19
2022-09-24T22:11:37.733Z,12.18
2022-09-24T22:14:05.868Z,12.26
2022-09-24T22:16:35.536Z,12.19
2022-09-24T22:19:04.843Z,12.14
2022-09-24T22:21:32.530Z,12.15
2022-09-24T22:23:59.473Z,12.07
2022-09-24T22:26:26.572Z,12.02
2022-09-24T22:28:53.857Z,12.01
2022-09-24T22:31:20.516Z,11.95
2022-09-24T22:34:05.622Z,12.03
2022-09-24T22:36:33.818Z,11.97
2022-09-24T22:39:03.294Z,12.07
2022-09-24T22:41:31.051Z,12.06
2022-09-24T22:43:58.314Z,12.01
2022-09-24T22:46:26.967Z,12.04
2022-09-24T22:48:54.850Z,12.03
2022-09-24T22:51:22.349Z,12.02
2022-09-24T22:53:48.841Z,11.87
2022-09-24T22:56:18.014Z,11.80
2022-09-24T22:58:49.791Z,11.82
2022-09-24T23:01:22.492Z,11.94
2022-09-24T23:03:51.039Z,11.86
2022-09-24T23:06:18.643Z,11.78
2022-09-24T23:08:45.075Z,11.69
2022-09-24T23:11:14.468Z,11.75
2022-09-24T23:13:43.451Z,11.70
2022-09-24T23:16:18.207Z,11.64
2022-09-24T23:18:47.072Z,11.66
2022-09-24T23:21:16.440Z,11.69
2022-09-24T23:23:43.689Z,11.65
2022-09-24T23:26:17.082Z,11.65
2022-09-24T23:28:50.580Z,11.63
2022-09-24T23:31:17.914Z,11.60
2022-09-24T23:33:44.498Z,11.64
2022-09-24T23:36:13.583Z,11.63
2022-09-24T23:38:41.131Z,11.57
2022-09-24T23:41:09.159Z,11.62
2022-09-24T23:43:36.099Z,11.57
2022-09-24T23:46:05.039Z,11.55
2022-09-24T23:48:32.499Z,11.57
2022-09-24T23:50:59.617Z,11.60
2022-09-24T23:53:26.735Z,11.49
2022-09-24T23:55:53.991Z,11.47
2022-09-24T23:58:22.110Z,11.40
